Hovedside
METAR-TAF:

METAR-TAF

Lufthavner :

Kuusamo, Finland

Kuusamo lufthavn

breddegrad: 65-58N, lengdegrad: 029-11E, høyde over havet: 262 m

Gjeldene værobservasjon

Denne rapporten ble laget for 25 minutter siden, klokken 04:20 UTC
Vind 3 kt fra Øst
Temperatur -6°C
Luftfuktighet 79%
Trykk 1010 hPa
Sikt 10 km eller mer
ingen skyer under 1500 m og ingen bygeskyer

METAR: EFKS 250420Z AUTO 09003KT CAVOK M06/M09 Q1010

Tid: 07:45 (04:45 UTC)

Varsel

Denne rapporten ble laget for 2 timer og 15 minutter siden, klokken 02:30 UTC
Varsel gyldig fra 25. klokken 03 UTC til 25. klokken 12 UTC
Vind 6 kt fra Øst
Sikt 10 km eller mer
ingen skyer under 1500 m og ingen bygeskyer

TAF: EFKS 250230Z 2503/2512 08006KT CAVOK

Værobservasjoner og værvarsel for over 4000 flyplasser (METAR- og TAF-rapporter).

Tilgjengelige stasjoner er representert av de røde og gule prikkene på kartet.

Hold musepekeren over prikken for å se navnet på stasjonen.

Klikk så for å se værobservasjoner og -varsler.

For å forandre kartet kan du klikke på den grønne knappen med svart kryss for å zoome inn, på den grønne knappen med strek for å zoome ut, eller på de grønne pilene for å se tilstøtende kart.


METAR-TAF: